Flight Track Log - Related Links

Times and Time Zones

All times are in EDT time to prevent confusion due to time zone crossing. See the DAL268 flight status page for this flight to view local times or setup timezone preferences in your user account.

Time Position Orientation Groundspeed Altitude Reporting Facility
EDT Latitude Longitude Course Direction KTS MPH feet Rate Location/Type
Mon 02:39:49 PM 37.6130 -122.3790 118° Southeast 27 31  Level FlightAware ADS-B
Mon 02:40:17 PM 37.6130 -122.3770 90° East 25 29 Level FlightAware ADS-B
Mon 02:40:35 PM 37.6120 -122.3770 180° South 28 32 Level FlightAware ADS-B
Mon 02:41:00 PM 37.6130 -122.3750 58° Northeast 15 17 Level FlightAware ADS-B
Mon 02:41:15 PM 37.6140 -122.3740 38° Northeast 30 35 Level FlightAware ADS-B
Mon 02:43:00 PM 37.6897 -122.1143 67° East  Level FlightAware Approximate
Mon 02:44:00 PM 37.7436 -121.9718 65° Northeast  Level FlightAware Approximate
Mon 02:45:00 PM 37.7958 -121.8282 65° Northeast  Level FlightAware Approximate
Mon 02:46:00 PM 37.8396 -121.6813 67° East  Level FlightAware Approximate
Mon 02:46:32 PM 37.6150 -122.3730 67° East 28 32  Level FlightAware ADS-B
Mon 02:48:16 PM 37.6130 -122.3670 135° Southeast 28 32 Level FlightAware ADS-B
Mon 02:58:11 PM 37.6212 -122.3810 298° West 173 199 100 70 Climbing FlightAware ADS-B
Mon 02:58:19 PM 37.6239 -122.3870 300° West 159 183 700 4,500 Climbing FlightAware ADS-B
Mon 02:58:23 PM 37.6257 -122.3900 307° West 155 178 1,000 4,500 Climbing FlightAware ADS-B
Mon 02:58:27 PM 37.6286 -122.3930 321° Northwest 157 181 1,300 4,500 Climbing FlightAware ADS-B
Mon 02:58:31 PM 37.6314 -122.3940 344° North 160 184 1,600 4,286 Climbing FlightAware ADS-B
Mon 02:58:34 PM 37.6338 -122.3940 360° North 162 186 1,800 3,000 Climbing FlightAware ADS-B
Mon 02:58:41 PM 37.6384 -122.3930 10° North 166 191 2,100 2,727 Climbing FlightAware ADS-B
Mon 02:58:45 PM 37.6418 -122.3920 13° North 173 199 2,300 1,800 Climbing FlightAware ADS-B
Mon 02:58:51 PM 37.6459 -122.3880 38° Northeast 183 211 2,400 1,200 Climbing FlightAware ADS-B
Mon 02:58:55 PM 37.6485 -122.3850 42° Northeast 194 223 2,500 1,714 Climbing FlightAware ADS-B
Mon 02:58:58 PM 37.6505 -122.3820 50° Northeast 199 229 2,600 2,250 Climbing FlightAware ADS-B
Mon 02:59:03 PM 37.6528 -122.3770 60° Northeast 203 234 2,800 2,769 Climbing FlightAware ADS-B
Mon 02:59:11 PM 37.6566 -122.3690 59° Northeast 206 237 3,200 2,400 Climbing FlightAware ADS-B
Mon 02:59:18 PM 37.6601 -122.3610 61° Northeast 211 243 3,400 1,636 Climbing FlightAware ADS-B
Mon 02:59:33 PM 37.6684 -122.3450 57° Northeast 226 260 3,800 1,935 Climbing FlightAware ADS-B
Mon 02:59:49 PM 37.6777 -122.3270 57° Northeast 239 275 4,400 1,935 Climbing FlightAware ADS-B
Mon 03:00:04 PM 37.6876 -122.3080 57° Northeast 259 298 4,800 1,680 Climbing FlightAware ADS-B
Mon 03:00:14 PM 37.6944 -122.2950 57° Northeast 271 312 5,100 2,160 Climbing FlightAware ADS-B
Mon 03:00:29 PM 37.7038 -122.2750 59° Northeast 280 322 5,700 2,800 Climbing FlightAware ADS-B
Mon 03:00:44 PM 37.7131 -122.2540 61° Northeast 278 320 6,500 2,757 Climbing FlightAware ADS-B
Mon 03:01:06 PM 37.7263 -122.2210 63° Northeast 293 337 7,400 2,571 Climbing FlightAware ADS-B
Mon 03:01:19 PM 37.7335 -122.1990 68° East 295 339 8,000 3,000 Climbing FlightAware ADS-B
Mon 03:01:36 PM 37.7413 -122.1720 70° East 297 342 8,900 2,909 Climbing FlightAware ADS-B
Mon 03:01:52 PM 37.7488 -122.1460 70° East 304 350 9,600 2,609 Climbing FlightAware ADS-B
Mon 03:02:22 PM 37.7635 -122.0960 70° East 309 356 10,900 1,967 Climbing FlightAware ADS-B
Mon 03:02:53 PM 37.7798 -122.0390 70° East 346 398 11,600 1,082 Climbing FlightAware ADS-B
Mon 03:03:23 PM 37.7981 -121.9780 69° East 382 440 12,000 1,455 Climbing FlightAware ADS-B
Mon 03:03:59 PM 37.8208 -121.9010 70° East 402 463 13,200 2,000 Climbing FlightAware ADS-B
Mon 03:04:29 PM 37.8398 -121.8340 70° East 415 478 14,200 2,200 Climbing FlightAware ADS-B
Mon 03:04:59 PM 37.8594 -121.7630 71° East 422 486 15,400 2,609 Climbing FlightAware ADS-B
Mon 03:05:15 PM 37.8698 -121.7260 70° East 418 481 16,200 2,600 Climbing FlightAware ADS-B
Mon 03:05:29 PM 37.8778 -121.6930 73° East 419 482 16,700 2,348 Climbing FlightAware ADS-B
Mon 03:06:01 PM 37.8937 -121.6180 75° East 423 487 18,000 2,032 Climbing FlightAware ADS-B
Mon 03:06:31 PM 37.9076 -121.5440 77° East 434 499 18,800 1,810 Climbing FlightAware ADS-B
Mon 03:07:04 PM 37.9226 -121.4640 77° East 442 509 19,900 1,810 Climbing FlightAware ADS-B
Mon 03:07:34 PM 37.9371 -121.3880 76° East 449 517 20,700 1,631 Climbing FlightAware ADS-B
Mon 03:08:47 PM 37.9730 -121.2010 76° East 466 536 22,700 1,680 Climbing FlightAware ADS-B
Mon 03:09:14 PM 37.9890 -121.1250 75° East 470 541 23,500 1,391 Climbing FlightAware ADS-B
Mon 03:09:56 PM 38.0120 -121.0110 76° East 485 558 24,300 1,326 Climbing FlightAware ADS-B
Mon 03:10:40 PM 38.0360 -120.8890 76° East 492 566 25,400 1,282 Climbing FlightAware ADS-B
Mon 03:11:39 PM 38.0670 -120.7270 76° East 508 585 26,500 1,085 Climbing FlightAware ADS-B
Mon 03:12:14 PM 38.0860 -120.6240 77° East 517 595 27,100 988 Climbing FlightAware ADS-B
Mon 03:13:04 PM 38.1150 -120.4680 77° East 529 609 27,900 1,213 Climbing FlightAware ADS-B
Mon 03:13:43 PM 38.1360 -120.3510 77° East 528 608 28,900 1,537 Climbing FlightAware ADS-B
Mon 03:14:26 PM 38.1600 -120.2220 77° East 523 602 30,000 1,586 Climbing FlightAware ADS-B
Mon 03:15:10 PM 38.1840 -120.0920 77° East 519 597 31,200 1,482 Climbing FlightAware ADS-B
Mon 03:15:51 PM 38.2050 -119.9770 77° East 517 595 32,100 1,425 Climbing FlightAware ADS-B
Mon 03:16:30 PM 38.2270 -119.8530 77° East 510 587 33,100 1,380 Climbing FlightAware ADS-B
Mon 03:17:31 PM 38.2590 -119.6790 77° East 508 585 34,400 765 Climbing FlightAware ADS-B
Mon 03:18:12 PM 38.2770 -119.5760 77° East 508 585 34,400 889 Level FlightAware ADS-B
Mon 03:18:35 PM 38.2340 -119.8180 257° West 35,300 1,433 Climbing FlightAware ADS-B
Mon 03:19:19 PM 38.3140 -119.3650 77° East 512 589 36,000 886 Climbing FlightAware ADS-B
Mon 03:20:03 PM 38.3370 -119.2360 77° East 511 588 36,600 698 Climbing FlightAware ADS-B
Mon 03:20:45 PM 38.3580 -119.1120 78° East 514 592 37,000 304 Climbing FlightAware ADS-B
Mon 03:21:22 PM 38.3750 -119.0190 77° East 514 592 37,000  Level FlightAware ADS-B
Mon 03:22:10 PM 38.3970 -118.8990 77° East 514 592 37,000  Level FlightAware ADS-B
Mon 03:22:47 PM 38.4140 -118.8060 77° East 514 592 37,000  Level FlightAware ADS-B
Mon 03:23:36 PM 38.4360 -118.6830 77° East 514 592 37,000  Level FlightAware ADS-B
Mon 03:24:10 PM 38.4520 -118.5970 77° East 514 592 37,000  Level FlightAware ADS-B
Mon 03:25:00 PM 38.4740 -118.4710 77° East 514 592 37,000  Level FlightAware ADS-B
Mon 03:25:36 PM 38.4910 -118.3810 76° East 514 592 37,000  Level FlightAware ADS-B
Mon 03:26:25 PM 38.5130 -118.2570 77° East 514 592 37,000  Level FlightAware ADS-B
Mon 03:27:02 PM 38.5300 -118.1640 77° East 514 592 37,000  Level FlightAware ADS-B
Mon 03:27:48 PM 38.5510 -118.0490 77° East 514 592 37,000  Level FlightAware ADS-B
Mon 03:28:23 PM 38.5670 -117.9600 77° East 514 592 37,000  Level FlightAware ADS-B
Mon 03:29:11 PM 38.5880 -117.8390 77° East 514 592 37,000  Level FlightAware ADS-B
Mon 03:29:48 PM 38.6050 -117.7460 77° East 514 592 37,000  Level FlightAware ADS-B
Mon 03:30:37 PM 38.6270 -117.6230 77° East 514 592 37,000  Level FlightAware ADS-B
Mon 03:31:49 PM 38.6758 -117.1753 77° East 500 575 37,000  Level Salt Lake Center
Mon 03:32:45 PM 38.6986 -117.0350 78° East 500 575 37,000  Level Oakland Center
Mon 03:33:47 PM 38.7253 -116.8597 79° East 498 573 37,000  Level Oakland Center
Mon 03:34:55 PM 38.7644 -116.6522 76° East 499 574 37,000  Level Salt Lake Center
Mon 03:35:50 PM 38.8086 -116.4850 71° East 494 568 37,000  Level Oakland Center
Mon 03:36:51 PM 38.8528 -116.3158 71° East 498 573 37,000  Level Oakland Center
Mon 03:38:01 PM 38.9053 -116.1144 71° East 497 572 37,000  Level Salt Lake Center
Mon 03:39:03 PM 38.9494 -115.9472 71° East 495 570 37,000  Level Salt Lake Center
Mon 03:40:05 PM 38.9925 -115.7797 72° East 493 567 37,000  Level Salt Lake Center
Mon 03:41:07 PM 39.0350 -115.6131 72° East 492 566 37,000  Level Salt Lake Center
Mon 03:42:09 PM 39.0783 -115.4447 72° East 493 567 37,000  Level Salt Lake Center
Mon 03:43:11 PM 39.1244 -115.2639 72° East 495 570 37,000  Level Salt Lake Center
Mon 03:44:13 PM 39.1686 -115.0864 72° East 493 567 37,000  Level Salt Lake Center
Mon 03:45:15 PM 39.2072 -114.9269 73° East 488 562 37,000  Level Salt Lake Center
Mon 03:46:17 PM 39.2553 -114.7372 72° East 496 571 37,000  Level Salt Lake Center
Mon 03:47:19 PM 39.2939 -114.5778 73° East 491 565 37,000  Level Salt Lake Center
Mon 03:53:20 PM 39.5420 -113.5420 73° East 490 564 37,000  Level FlightAware ADS-B
Mon 03:54:00 PM 39.5690 -113.4290 73° East 488 562 37,000  Level FlightAware ADS-B
Mon 03:54:42 PM 39.5960 -113.3140 73° East 488 562 37,000  Level FlightAware ADS-B
Mon 03:55:54 PM 39.6420 -113.1110 74° East 488 562 37,000  Level FlightAware ADS-B
Mon 03:56:43 PM 39.6730 -112.9790 73° East 487 560 37,000  Level FlightAware ADS-B
Mon 03:57:24 PM 39.6960 -112.8810 73° East 487 560 37,000  Level FlightAware ADS-B
Mon 03:58:01 PM 39.7160 -112.7930 74° East 487 560 37,000  Level FlightAware ADS-B
Mon 03:58:48 PM 39.7530 -112.6230 74° East 488 562 37,000  Level FlightAware ADS-B
Mon 03:59:34 PM 39.7820 -112.4920 74° East 489 563 37,000  Level FlightAware ADS-B
Mon 04:00:17 PM 39.8060 -112.3880 73° East 488 562 37,000  Level FlightAware ADS-B
Mon 04:00:50 PM 39.8290 -112.2820 74° East 488 562 37,000  Level FlightAware ADS-B
Mon 04:01:48 PM 39.8650 -112.1180 74° East 487 560 37,000  Level FlightAware ADS-B
Mon 04:02:36 PM 39.8910 -112.0010 74° East 487 560 37,000  Level FlightAware ADS-B
Mon 04:03:16 PM 39.9190 -111.8690 75° East 489 563 37,000  Level FlightAware ADS-B
Mon 04:03:54 PM 39.9420 -111.7620 74° East 489 563 37,000  Level FlightAware ADS-B
Mon 04:04:42 PM 39.9710 -111.6280 74° East 489 563 37,000  Level FlightAware ADS-B
Mon 04:05:15 PM 39.9910 -111.5350 74° East 489 563 37,000  Level FlightAware ADS-B
Mon 04:05:58 PM 40.0170 -111.4120 75° East 490 564 37,000  Level FlightAware ADS-B
Mon 04:06:43 PM 40.0430 -111.2900 74° East 490 564 37,000  Level FlightAware ADS-B
Mon 04:07:28 PM 40.0720 -111.1550 74° East 491 565 37,000  Level FlightAware ADS-B
Mon 04:08:10 PM 40.0960 -111.0380 75° East 491 565 37,000  Level FlightAware ADS-B
Mon 04:08:45 PM 40.1180 -110.9340 75° East 491 565 37,000  Level FlightAware ADS-B
Mon 04:09:32 PM 40.1440 -110.8080 75° East 489 563 37,000  Level FlightAware ADS-B
Mon 04:10:14 PM 40.1690 -110.6850 75° East 488 562 37,000  Level FlightAware ADS-B
Mon 04:10:56 PM 40.1910 -110.5760 75° East 487 560 37,000  Level FlightAware ADS-B
Mon 04:11:41 PM 40.2200 -110.4330 75° East 488 562 37,000  Level FlightAware ADS-B
Mon 04:12:21 PM 40.2430 -110.3210 75° East 488 562 37,000  Level FlightAware ADS-B
Mon 04:12:59 PM 40.2630 -110.2210 75° East 487 560 37,000  Level FlightAware ADS-B
Mon 04:13:48 PM 40.2920 -110.0730 76° East 487 560 37,000  Level FlightAware ADS-B
Mon 04:14:26 PM 40.3130 -109.9690 75° East 487 560 37,000  Level FlightAware ADS-B
Mon 04:15:08 PM 40.3400 -109.8440 74° East 487 560 37,000  Level FlightAware ADS-B
Mon 04:15:53 PM 40.3810 -109.7230 66° East 486 559 37,000  Level FlightAware ADS-B
Mon 04:16:34 PM 40.4140 -109.6270 66° East 486 559 37,000  Level FlightAware ADS-B
Mon 04:17:18 PM 40.4590 -109.4930 66° East 486 559 37,000  Level FlightAware ADS-B
Mon 04:17:57 PM 40.4940 -109.3910 66° East 486 559 37,000  Level FlightAware ADS-B
Mon 04:18:35 PM 40.5290 -109.2870 66° East 486 559 37,000  Level FlightAware ADS-B
Mon 04:19:21 PM 40.5710 -109.1630 66° East 487 560 37,000  Level FlightAware ADS-B
Mon 04:20:05 PM 40.6070 -109.0440 68° East 486 559 37,000  Level FlightAware ADS-B
Mon 04:20:45 PM 40.6350 -108.9300 72° East 485 558 37,000  Level FlightAware ADS-B
Mon 04:21:29 PM 40.6640 -108.8060 73° East 486 559 37,000  Level FlightAware ADS-B
Mon 04:22:09 PM 40.6890 -108.6920 74° East 486 559 37,000  Level FlightAware ADS-B
Mon 04:22:51 PM 40.7160 -108.5740 73° East 486 559 37,000  Level FlightAware ADS-B
Mon 04:23:34 PM 40.7430 -108.4520 74° East 486 559 37,000  Level FlightAware ADS-B
Mon 04:24:11 PM 40.7670 -108.3470 73° East 487 560 37,000  Level FlightAware ADS-B
Mon 04:24:57 PM 40.7960 -108.2140 74° East 488 562 37,000  Level FlightAware ADS-B
Mon 04:25:39 PM 40.8220 -108.0950 74° East 488 562 37,000  Level FlightAware ADS-B
Mon 04:26:23 PM 40.8500 -107.9700 73° East 488 562 37,000  Level FlightAware ADS-B
Mon 04:27:03 PM 40.8740 -107.8570 74° East 487 560 37,000  Level FlightAware ADS-B
Mon 04:27:45 PM 40.9010 -107.7360 74° East 488 562 37,000  Level FlightAware ADS-B
Mon 04:28:29 PM 40.9280 -107.6090 74° East 488 562 37,000  Level FlightAware ADS-B
Mon 04:29:12 PM 40.9540 -107.4910 74° East 489 563 37,000  Level FlightAware ADS-B
Mon 04:29:52 PM 40.9940 -107.3790 65° Northeast 485 558 37,000  Level FlightAware ADS-B
Mon 04:30:28 PM 41.0280 -107.2830 65° Northeast 485 558 37,000  Level FlightAware ADS-B
Mon 04:31:16 PM 41.0740 -107.1540 65° Northeast 484 557 37,000  Level FlightAware ADS-B
Mon 04:31:43 PM 41.0990 -107.0850 64° Northeast 483 556 37,000  Level FlightAware ADS-B
Mon 04:32:23 PM 41.1360 -106.9810 65° Northeast 483 556 37,000  Level FlightAware ADS-B
Mon 04:33:05 PM 41.1760 -106.8670 65° Northeast 482 555 37,000  Level FlightAware ADS-B
Mon 04:33:48 PM 41.2160 -106.7470 66° East 484 557 37,000  Level FlightAware ADS-B
Mon 04:34:34 PM 41.2550 -106.6210 68° East 483 556 37,000  Level FlightAware ADS-B
Mon 04:35:14 PM 41.2880 -106.5110 68° East 483 556 37,000  Level FlightAware ADS-B
Mon 04:35:56 PM 41.3230 -106.3960 68° East 485 558 37,000  Level FlightAware ADS-B
Mon 04:36:39 PM 41.3600 -106.2780 67° East 486 559 37,000  Level FlightAware ADS-B
Mon 04:37:19 PM 41.3920 -106.1660 69° East 486 559 37,000  Level FlightAware ADS-B
Mon 04:38:03 PM 41.4290 -106.0410 68° East 486 559 37,000  Level FlightAware ADS-B
Mon 04:38:45 PM 41.4630 -105.9240 69° East 484 557 37,000  Level FlightAware ADS-B
Mon 04:39:27 PM 41.4970 -105.8060 69° East 487 560 37,000  Level FlightAware ADS-B
Mon 04:40:07 PM 41.5280 -105.6960 69° East 489 563 37,000  Level FlightAware ADS-B
Mon 04:40:45 PM 41.5570 -105.5890 70° East 491 565 37,000  Level FlightAware ADS-B
Mon 04:41:31 PM 41.5940 -105.4570 69° East 490 564 37,000  Level FlightAware ADS-B
Mon 04:42:07 PM 41.6230 -105.3550 69° East 490 564 37,000  Level FlightAware ADS-B
Mon 04:42:57 PM 41.6630 -105.2120 69° East 490 564 37,000  Level FlightAware ADS-B
Mon 04:43:10 PM 41.6730 -105.1760 70° East 491 565 37,000  Level FlightAware ADS-B
Mon 04:43:28 PM 41.6872 -105.1240 70° East 492 566 37,000  Level FlightAware ADS-B
Mon 04:43:58 PM 41.7036 -105.0350 76° East 490 564 37,000  Level FlightAware ADS-B
Mon 04:44:30 PM 41.7193 -104.9430 77° East 491 565 37,000  Level FlightAware ADS-B
Mon 04:45:00 PM 41.7344 -104.8530 77° East 493 567 37,000  Level FlightAware ADS-B
Mon 04:45:30 PM 41.7469 -104.7620 80° East 492 566 37,000  Level FlightAware ADS-B
Mon 04:46:00 PM 41.7592 -104.6720 80° East 493 567 37,000  Level FlightAware ADS-B
Mon 04:46:31 PM 41.7721 -104.5810 79° East 494 568 37,000  Level FlightAware ADS-B
Mon 04:47:01 PM 41.7852 -104.4890 79° East 493 567 37,000  Level FlightAware ADS-B
Mon 04:47:32 PM 41.7988 -104.3960 79° East 493 567 37,000  Level FlightAware ADS-B
Mon 04:48:02 PM 41.8119 -104.3070 79° East 492 566 37,000  Level FlightAware ADS-B
Mon 04:48:36 PM 41.8262 -104.2070 79° East 491 565 37,000  Level FlightAware ADS-B
Mon 04:49:06 PM 41.8390 -104.1180 79° East 490 564 37,000  Level FlightAware ADS-B
Mon 04:49:36 PM 41.8518 -104.0270 79° East 490 564 37,000  Level FlightAware ADS-B
Mon 04:50:11 PM 41.8664 -103.9240 79° East 489 563 37,000  Level FlightAware ADS-B
Mon 04:50:41 PM 41.8791 -103.8330 79° East 489 563 37,000  Level FlightAware ADS-B
Mon 04:51:04 PM 41.8867 -103.7670 81° East 493 567 37,000  Level FlightAware ADS-B
Mon 04:51:11 PM 41.8873 -103.7430 88° East 495 570 37,000  Level FlightAware ADS-B
Mon 04:51:16 PM 41.8870 -103.7280 92° East 495 570 37,000  Level FlightAware ADS-B
Mon 04:51:28 PM 41.8842 -103.6920 96° East 497 572 37,000  Level FlightAware ADS-B
Mon 04:51:58 PM 41.8739 -103.6000 99° East 497 572 37,000  Level FlightAware ADS-B
Mon 04:52:29 PM 41.8634 -103.5080 99° East 497 572 37,000  Level FlightAware ADS-B
Mon 04:52:59 PM 41.8531 -103.4160 99° East 496 571 37,000  Level FlightAware ADS-B
Mon 04:53:29 PM 41.8428 -103.3240 99° East 496 571 37,000  Level FlightAware ADS-B
Mon 04:53:44 PM 41.8375 -103.2790 99° East 496 571 37,000  Level FlightAware ADS-B
Mon 04:54:20 PM 41.8214 -103.1720 101° East 495 570 37,000  Level FlightAware ADS-B
Mon 04:54:51 PM 41.8074 -103.0800 102° East 496 571 37,000  Level FlightAware ADS-B
Mon 04:55:21 PM 41.7938 -102.9890 101° East 497 572 37,000  Level FlightAware ADS-B
Mon 04:55:51 PM 41.7804 -102.8980 101° East 497 572 37,000  Level FlightAware ADS-B
Mon 04:56:21 PM 41.7668 -102.8060 101° East 498 573 37,000  Level FlightAware ADS-B
Mon 04:56:52 PM 41.7535 -102.7140 101° East 500 575 37,000  Level FlightAware ADS-B
Mon 04:57:25 PM 41.7393 -102.6150 101° East 500 575 37,000  Level FlightAware ADS-B
Mon 04:57:55 PM 41.7263 -102.5240 101° East 500 575 37,000  Level FlightAware ADS-B
Mon 04:58:25 PM 41.7130 -102.4310 101° East 500 575 37,000  Level FlightAware ADS-B
Mon 04:59:00 PM 41.6978 -102.3250 101° East 500 575 37,000  Level FlightAware ADS-B
Mon 04:59:47 PM 41.6780 -102.1850 101° East 500 575 37,000 71 Level FlightAware ADS-B
Mon 05:00:25 PM 41.6611 -102.0670 101° East 499 574 37,100 696 Climbing FlightAware ADS-B
Mon 05:00:56 PM 41.6487 -101.9770 100° East 491 565 37,800 1,180 Climbing FlightAware ADS-B
Mon 05:01:26 PM 41.6376 -101.8870 99° East 492 566 38,300 789 Climbing FlightAware ADS-B
Mon 05:02:12 PM 41.6216 -101.7490 99° East 493 567 38,800 554 Climbing FlightAware ADS-B
Mon 05:02:31 PM 41.6149 -101.6900 99° East 494 568 38,900 353 Climbing FlightAware ADS-B
Mon 05:02:46 PM 41.6121 -101.6460 95° East 496 571 39,000 158 Climbing FlightAware ADS-B
Mon 05:03:09 PM 41.6163 -101.5750 85° East 496 571 39,000  Level FlightAware ADS-B
Mon 05:03:21 PM 41.6223 -101.5400 77° East 495 570 39,000  Level FlightAware ADS-B
Mon 05:03:24 PM 41.6243 -101.5310 73° East 494 568 39,000  Level FlightAware ADS-B
Mon 05:03:34 PM 41.6325 -101.5010 70° East 493 567 39,000  Level FlightAware ADS-B
Mon 05:04:04 PM 41.6588 -101.4170 67° East 496 571 39,000  Level FlightAware ADS-B
Mon 05:04:35 PM 41.6858 -101.3300 67° East 500 575 39,000  Level FlightAware ADS-B
Mon 05:05:04 PM 41.7042 -101.2692 67° East 495 570 39,000  Level Denver Center
Mon 05:06:06 PM 41.7650 -101.0750 67° East 504 580 39,000  Level Denver Center
Mon 05:07:20 PM 41.8161 -100.9094 67° East 503 579 39,000  Level Denver Center
Mon 05:08:23 PM 41.8839 -100.6892 67° East 498 573 39,000  Level Denver Center
Mon 05:09:37 PM 41.9344 -100.5214 68° East 503 579 39,000  Level Denver Center
Mon 05:10:15 PM 41.9786 -100.3739 68° East 504 580 39,000  Level Minneapolis Center
Mon 05:10:39 PM 42.0022 -100.2986 67° East 505 581 39,000  Level Denver Center
Mon 05:11:41 PM 42.0517 -100.1303 68° East 504 580 39,000  Level Denver Center
Mon 05:12:31 PM 42.0839 -100.0239 68° East 505 581 39,000  Level Minneapolis Center
Mon 05:13:33 PM 42.1475 -99.8119 68° East 505 581 39,000  Level Minneapolis Center
Mon 05:14:35 PM 42.2072 -99.6025 69° East 502 578 39,000  Level Minneapolis Center
Mon 05:15:37 PM 42.2586 -99.4283 68° East 498 573 39,000  Level Minneapolis Center
Mon 05:16:39 PM 42.3094 -99.2542 68° East 498 573 39,000  Level Minneapolis Center
Mon 05:17:42 PM 42.3594 -99.0786 69° East 498 573 39,000  Level Minneapolis Center
Mon 05:18:43 PM 42.3997 -98.9378 69° East 499 574 39,000  Level Minneapolis Center
Mon 05:19:46 PM 42.4586 -98.7272 69° East 498 573 39,000  Level Minneapolis Center
Mon 05:20:48 PM 42.4781 -98.5392 82° East 504 580 39,000  Level Minneapolis Center
Mon 05:21:50 PM 42.4892 -98.3097 86° East 507 583 39,000  Level Minneapolis Center
Mon 05:27:30 PM 42.5360 -97.2200 86° East 510 587 39,000  Level FlightAware ADS-B
Mon 05:28:14 PM 42.5420 -97.0780 87° East 510 587 39,000  Level FlightAware ADS-B
Mon 05:28:56 PM 42.5470 -96.9450 87° East 510 587 39,000  Level FlightAware ADS-B
Mon 05:29:36 PM 42.5510 -96.8170 88° East 509 586 39,000  Level FlightAware ADS-B
Mon 05:30:16 PM 42.5550 -96.6920 87° East 510 587 39,000  Level FlightAware ADS-B
Mon 05:31:00 PM 42.5600 -96.5500 87° East 511 588 39,000  Level FlightAware ADS-B
Mon 05:31:45 PM 42.5650 -96.4050 87° East 511 588 39,000  Level FlightAware ADS-B
Mon 05:32:27 PM 42.5690 -96.2720 88° East 512 589 39,000  Level FlightAware ADS-B
Mon 05:33:07 PM 42.5730 -96.1430 88° East 512 589 39,000  Level FlightAware ADS-B
Mon 05:33:43 PM 42.5760 -96.0280 88° East 512 589 39,000  Level FlightAware ADS-B
Mon 05:34:29 PM 42.5800 -95.8830 88° East 513 590 39,000  Level FlightAware ADS-B
Mon 05:35:15 PM 42.5840 -95.7310 88° East 513 590 39,000  Level FlightAware ADS-B
Mon 05:35:55 PM 42.5870 -95.6040 88° East 514 592 39,000  Level FlightAware ADS-B
Mon 05:36:37 PM 42.5900 -95.4700 88° East 515 593 39,000  Level FlightAware ADS-B
Mon 05:37:21 PM 42.5930 -95.3280 88° East 515 593 39,000  Level FlightAware ADS-B
Mon 05:37:59 PM 42.5960 -95.2040 88° East 515 593 39,000  Level FlightAware ADS-B
Mon 05:38:45 PM 42.5990 -95.0580 88° East 514 592 39,000  Level FlightAware ADS-B
Mon 05:39:23 PM 42.6010 -94.9340 89° East 514 592 39,000  Level FlightAware ADS-B
Mon 05:40:06 PM 42.6040 -94.7980 88° East 514 592 39,000  Level FlightAware ADS-B
Mon 05:40:49 PM 42.6060 -94.6620 89° East 515 593 39,000  Level FlightAware ADS-B
Mon 05:41:29 PM 42.6080 -94.5290 89° East 516 594 39,000  Level FlightAware ADS-B
Mon 05:42:11 PM 42.6100 -94.3940 89° East 517 595 39,000  Level FlightAware ADS-B
Mon 05:42:53 PM 42.6120 -94.2590 89° East 517 595 39,000  Level FlightAware ADS-B
Mon 05:43:37 PM 42.6130 -94.1150 89° East 518 596 39,000  Level FlightAware ADS-B
Mon 05:44:19 PM 42.6140 -93.9800 89° East 519 597 39,000  Level FlightAware ADS-B
Mon 05:44:59 PM 42.6150 -93.8670 89° East 519 597 39,000  Level FlightAware ADS-B
Mon 05:45:42 PM 42.6150 -93.7100 90° East 520 598 39,000  Level FlightAware ADS-B
Mon 05:46:27 PM 42.6160 -93.5630 89° East 520 598 39,000  Level FlightAware ADS-B
Mon 05:47:07 PM 42.6160 -93.4300 90° East 521 600 39,000  Level FlightAware ADS-B
Mon 05:47:47 PM 42.6170 -93.3050 89° East 522 601 39,000  Level FlightAware ADS-B
Mon 05:48:27 PM 42.6170 -93.1720 90° East 522 601 39,000  Level FlightAware ADS-B
Mon 05:49:11 PM 42.6170 -93.0270 90° East 523 602 39,000  Level FlightAware ADS-B
Mon 05:49:55 PM 42.6160 -92.8840 90° East 524 603 39,000  Level FlightAware ADS-B
Mon 05:50:37 PM 42.6160 -92.7470 90° East 525 604 39,000  Level FlightAware ADS-B
Mon 05:51:15 PM 42.6150 -92.6200 91° East 527 606 39,000  Level FlightAware ADS-B
Mon 05:52:01 PM 42.6150 -92.4670 90° East 528 608 39,000  Level FlightAware ADS-B
Mon 05:52:43 PM 42.6140 -92.3310 91° East 528 608 39,000  Level FlightAware ADS-B
Mon 05:53:24 PM 42.6130 -92.2110 91° East 529 609 39,000  Level FlightAware ADS-B
Mon 05:54:06 PM 42.6110 -92.0560 91° East 529 609 39,000  Level FlightAware ADS-B
Mon 05:54:49 PM 42.6100 -91.9210 91° East 526 605 39,000  Level FlightAware ADS-B
Mon 05:55:33 PM 42.6080 -91.7730 91° East 524 603 39,000  Level FlightAware ADS-B
Mon 05:56:09 PM 42.6070 -91.6560 91° East 523 602 39,000  Level FlightAware ADS-B
Mon 05:56:53 PM 42.6050 -91.5110 91° East 521 600 39,000  Level FlightAware ADS-B
Mon 05:57:35 PM 42.6030 -91.3750 91° East 521 600 39,000  Level FlightAware ADS-B
Mon 05:58:21 PM 42.6000 -91.2240 91° East 521 600 39,000  Level FlightAware ADS-B
Mon 05:59:03 PM 42.5980 -91.0880 91° East 521 600 39,000  Level FlightAware ADS-B
Mon 05:59:45 PM 42.5950 -90.9470 92° East 522 601 39,000  Level FlightAware ADS-B
Mon 06:00:23 PM 42.5930 -90.8220 91° East 522 601 39,000  Level FlightAware ADS-B
Mon 06:00:59 PM 42.5900 -90.7100 92° East 523 602 39,000  Level FlightAware ADS-B
Mon 06:01:42 PM 42.5870 -90.5640 92° East 524 603 39,000  Level FlightAware ADS-B
Mon 06:02:24 PM 42.5840 -90.4250 92° East 525 604 39,000  Level FlightAware ADS-B
Mon 06:03:05 PM 42.5810 -90.2940 92° East 527 606 39,000  Level FlightAware ADS-B
Mon 06:03:44 PM 42.5770 -90.1630 92° East 527 606 39,000  Level FlightAware ADS-B
Mon 06:04:30 PM 42.5730 -90.0110 92° East 528 608 39,000  Level FlightAware ADS-B
Mon 06:05:10 PM 42.5700 -89.8790 92° East 529 609 39,000  Level FlightAware ADS-B
Mon 06:05:54 PM 42.5650 -89.7330 93° East 530 610 39,000  Level FlightAware ADS-B
Mon 06:06:38 PM 42.5610 -89.5870 92° East 529 609 39,000  Level FlightAware ADS-B
Mon 06:07:14 PM 42.5570 -89.4690 93° East 531 611 39,000  Level FlightAware ADS-B
Mon 06:07:59 PM 42.5520 -89.3190 93° East 533 613 39,000  Level FlightAware ADS-B
Mon 06:08:41 PM 42.5470 -89.1790 93° East 533 613 39,000  Level FlightAware ADS-B
Mon 06:09:24 PM 42.5420 -89.0350 93° East 533 613 39,000  Level FlightAware ADS-B
Mon 06:10:07 PM 42.5370 -88.8930 93° East 534 615 39,000  Level FlightAware ADS-B
Mon 06:10:48 PM 42.5320 -88.7550 93° East 535 616 39,000  Level FlightAware ADS-B
Mon 06:11:22 PM 42.5270 -88.6400 93° East 538 619 39,000  Level FlightAware ADS-B
Mon 06:12:06 PM 42.5210 -88.4940 93° East 541 623 39,000  Level FlightAware ADS-B
Mon 06:12:49 PM 42.5150 -88.3490 93° East 540 621 39,000  Level FlightAware ADS-B
Mon 06:13:32 PM 42.5090 -88.2050 93° East 543 625 39,000  Level FlightAware ADS-B
Mon 06:14:13 PM 42.5030 -88.0650 93° East 545 627 39,000  Level FlightAware ADS-B
Mon 06:14:54 PM 42.5000 -87.9230 92° East 548 631 39,000  Level FlightAware ADS-B
Mon 06:15:38 PM 42.5000 -87.7710 90° East 550 633 39,000  Level FlightAware ADS-B
Mon 06:16:13 PM 42.4990 -87.6520 91° East 552 635 39,000  Level FlightAware ADS-B
Mon 06:17:01 PM 42.4990 -87.4900 90° East 553 636 39,000  Level FlightAware ADS-B
Mon 06:17:40 PM 42.4980 -87.3570 91° East 554 638 39,000  Level FlightAware ADS-B
Mon 06:18:25 PM 42.4970 -87.1960 90° East 553 636 39,000  Level FlightAware ADS-B
Mon 06:19:10 PM 42.4960 -87.0420 90° East 553 636 39,000  Level FlightAware ADS-B
Mon 06:19:45 PM 42.4950 -86.9310 91° East 554 638 39,000  Level FlightAware ADS-B
Mon 06:20:34 PM 42.4940 -86.7520 90° East 555 639 39,000  Level FlightAware ADS-B
Mon 06:21:12 PM 42.4920 -86.6270 91° East 557 641 39,000  Level FlightAware ADS-B
Mon 06:21:57 PM 42.4900 -86.4610 91° East 559 643 39,000  Level FlightAware ADS-B
Mon 06:22:37 PM 42.4880 -86.3200 91° East 561 646 39,000  Level FlightAware ADS-B
Mon 06:23:21 PM 42.4860 -86.1680 91° East 561 646 39,000  Level FlightAware ADS-B
Mon 06:24:01 PM 42.4840 -86.0260 91° East 561 646 39,000  Level FlightAware ADS-B
Mon 06:24:45 PM 42.4810 -85.8700 91° East 562 647 39,000  Level FlightAware ADS-B
Mon 06:25:27 PM 42.4780 -85.7260 92° East 562 647 39,000  Level FlightAware ADS-B
Mon 06:26:09 PM 42.4750 -85.5760 92° East 563 648 39,000  Level FlightAware ADS-B
Mon 06:26:49 PM 42.4720 -85.4360 92° East 564 649 39,000  Level FlightAware ADS-B
Mon 06:27:31 PM 42.4690 -85.2900 92° East 564 649 39,000  Level FlightAware ADS-B
Mon 06:28:15 PM 42.4650 -85.1330 92° East 565 650 39,000  Level FlightAware ADS-B
Mon 06:28:55 PM 42.4610 -84.9920 92° East 566 651 39,000  Level FlightAware ADS-B
Mon 06:29:39 PM 42.4570 -84.8350 92° East 567 652 39,000  Level FlightAware ADS-B
Mon 06:30:19 PM 42.4530 -84.6990 92° East 566 651 39,000  Level FlightAware ADS-B
Mon 06:30:59 PM 42.4490 -84.5550 92° East 561 646 39,000  Level FlightAware ADS-B
Mon 06:31:45 PM 42.4440 -84.3920 92° East 556 640 39,000  Level FlightAware ADS-B
Mon 06:32:24 PM 42.4400 -84.2560 92° East 556 640 39,000  Level FlightAware ADS-B
Mon 06:33:09 PM 42.4350 -84.1020 92° East 556 640 39,000  Level FlightAware ADS-B
Mon 06:33:44 PM 42.4320 -84.0100 92° East 556 640 39,000  Level FlightAware ADS-B
Mon 06:34:34 PM 42.4250 -83.8200 93° East 556 640 39,000  Level FlightAware ADS-B
Mon 06:35:15 PM 42.4200 -83.6910 93° East 555 639 39,000  Level FlightAware ADS-B
Mon 06:35:55 PM 42.4140 -83.5290 93° East 554 638 39,000  Level FlightAware ADS-B
Mon 06:36:40 PM 42.4080 -83.3770 93° East 552 635 39,000  Level FlightAware ADS-B
Mon 06:37:20 PM 42.4020 -83.2380 93° East 552 635 39,000  Level FlightAware ADS-B
Mon 06:38:02 PM 42.3960 -83.0950 93° East 551 634 39,000  Level FlightAware ADS-B
Mon 06:38:43 PM 42.3900 -82.9560 93° East 551 634 39,000  Level FlightAware ADS-B
Mon 06:39:24 PM 42.3840 -82.8100 93° East 551 634 39,000  Level FlightAware ADS-B
Mon 06:40:07 PM 42.3770 -82.6630 94° East 548 631 39,000  Level FlightAware ADS-B
Mon 06:40:50 PM 42.3720 -82.5200 93° East 549 632 39,000  Level FlightAware ADS-B
Mon 06:41:30 PM 42.3670 -82.3820 93° East 549 632 39,000  Level FlightAware ADS-B
Mon 06:42:07 PM 42.3610 -82.2540 94° East 548 631 39,000  Level FlightAware ADS-B
Mon 06:42:51 PM 42.3560 -82.1290 93° East 548 631 39,000  Level FlightAware ADS-B
Mon 06:43:35 PM 42.3490 -81.9600 93° East 550 633 39,000  Level FlightAware ADS-B
Mon 06:44:16 PM 42.3430 -81.8250 93° East 550 633 39,000  Level FlightAware ADS-B
Mon 06:44:58 PM 42.3360 -81.6700 93° East 551 634 39,000  Level FlightAware ADS-B
Mon 06:45:40 PM 42.3280 -81.5220 94° East 555 639 39,000  Level FlightAware ADS-B
Mon 06:46:26 PM 42.3210 -81.3640 93° East 555 639 39,000  Level FlightAware ADS-B
Mon 06:47:02 PM 42.3150 -81.2380 94° East 559 643 39,000  Level FlightAware ADS-B
Mon 06:47:48 PM 42.3070 -81.0860 94° East 559 643 39,000 -133 Level FlightAware ADS-B
Mon 06:48:32 PM 42.2990 -80.9240 94° East 554 638 38,800 -977 Descending FlightAware ADS-B
Mon 06:49:14 PM 42.2910 -80.7810 94° East 558 642 37,600 -1,385 Descending FlightAware ADS-B
Mon 06:49:50 PM 42.2840 -80.6560 94° East 576 663 37,000 -462 Descending FlightAware ADS-B
Mon 06:50:32 PM 42.2690 -80.5360 100° East 577 664 37,000  Level FlightAware ADS-B
Mon 06:51:15 PM 42.2460 -80.3870 102° East 570 656 37,000  Level FlightAware ADS-B
Mon 06:52:01 PM 42.2220 -80.2240 101° East 569 655 37,000  Level FlightAware ADS-B
Mon 06:52:59 PM 42.1940 -80.0320 101° East 568 654 37,000  Level FlightAware ADS-B
Mon 06:53:35 PM 42.1760 -79.9040 101° East 567 652 37,000  Level FlightAware ADS-B
Mon 06:54:15 PM 42.1550 -79.7520 101° East 566 651 37,000  Level FlightAware ADS-B
Mon 06:54:59 PM 42.1340 -79.6080 101° East 563 648 37,000  Level FlightAware ADS-B
Mon 06:55:41 PM 42.1140 -79.4630 100° East 561 646 37,000  Level FlightAware ADS-B
Mon 06:56:23 PM 42.0920 -79.3140 101° East 560 644 37,000  Level FlightAware ADS-B
Mon 06:57:05 PM 42.0740 -79.1910 101° East 559 643 37,000  Level FlightAware ADS-B
Mon 06:57:53 PM 42.0430 -78.9870 101° East 561 646 37,000  Level FlightAware ADS-B
Mon 06:58:33 PM 42.0230 -78.8540 101° East 561 646 37,000  Level FlightAware ADS-B
Mon 06:59:15 PM 42.0000 -78.7070 102° East 562 647 37,000  Level FlightAware ADS-B
Mon 06:59:59 PM 41.9760 -78.5530 102° East 571 657 37,000  Level FlightAware ADS-B
Mon 07:00:39 PM 41.9550 -78.4160 102° East 576 663 37,000  Level FlightAware ADS-B
Mon 07:01:20 PM 41.9340 -78.2850 102° East 578 665 37,000  Level FlightAware ADS-B
Mon 07:02:02 PM 41.9090 -78.1260 102° East 577 664 37,000  Level FlightAware ADS-B
Mon 07:02:47 PM 41.8850 -77.9740 102° East 577 664 37,000  Level FlightAware ADS-B
Mon 07:03:26 PM 41.8580 -77.8330 104° East 576 663 37,000  Level FlightAware ADS-B
Mon 07:04:12 PM 41.8200 -77.6790 108° East 574 661 37,000  Level FlightAware ADS-B
Mon 07:04:52 PM 41.7840 -77.5430 110° East 573 659 37,000  Level FlightAware ADS-B
Mon 07:05:36 PM 41.7450 -77.3970 110° East 572 658 37,000  Level FlightAware ADS-B
Mon 07:06:16 PM 41.7090 -77.2650 110° East 571 657 37,000  Level FlightAware ADS-B
Mon 07:06:56 PM 41.6740 -77.1350 110° East 570 656 37,000  Level FlightAware ADS-B
Mon 07:07:27 PM 41.6453 -77.0276 110° East 571 657 37,000  Level FlightAware ADS-B
Mon 07:08:00 PM 41.6157 -76.9186 110° East 571 657 37,000  Level FlightAware ADS-B
Mon 07:08:31 PM 41.5880 -76.8173 110° East 569 655 37,000  Level FlightAware ADS-B
Mon 07:09:02 PM 41.5598 -76.7143 110° East 569 655 37,000  Level FlightAware ADS-B
Mon 07:09:33 PM 41.5319 -76.6129 110° East 570 656 37,000  Level FlightAware ADS-B
Mon 07:10:03 PM 41.5045 -76.5137 110° East 569 655 37,000 -290 Level FlightAware ADS-B
Mon 07:10:35 PM 41.4760 -76.4105 110° East 567 652 36,700 -1,477 Descending FlightAware ADS-B
Mon 07:11:08 PM 41.4459 -76.3027 110° East 570 656 35,400 -2,625 Descending FlightAware ADS-B
Mon 07:11:39 PM 41.4172 -76.1999 110° East 576 663 33,900 -2,516 Descending FlightAware ADS-B
Mon 07:12:10 PM 41.3882 -76.0961 110° East 565 650 32,800 -2,226 Descending FlightAware ADS-B
Mon 07:12:41 PM 41.3606 -75.9980 111° Southeast 558 642 31,600 -2,656 Descending FlightAware ADS-B
Mon 07:13:11 PM 41.3333 -75.9015 111° Southeast 557 641 30,100 -3,290 Descending FlightAware ADS-B
Mon 07:13:43 PM 41.3044 -75.7998 111° Southeast 560 644 28,200 -3,677 Descending FlightAware ADS-B
Mon 07:14:13 PM 41.2759 -75.7027 111° Southeast 560 644 26,300 -3,500 Descending FlightAware ADS-B
Mon 07:14:43 PM 41.2452 -75.6062 113° Southeast 555 639 24,700 -2,710 Descending FlightAware ADS-B
Mon 07:15:15 PM 41.2134 -75.5100 114° Southeast 527 606 23,500 -1,619 Descending FlightAware ADS-B
Mon 07:15:46 PM 41.1842 -75.4228 114° Southeast 504 580 23,000 -590 Descending FlightAware ADS-B
Mon 07:16:16 PM 41.1557 -75.3387 114° Southeast 501 577 22,900 -600 Descending FlightAware ADS-B
Mon 07:16:46 PM 41.1266 -75.2529 114° Southeast 504 580 22,400 -971 Descending FlightAware ADS-B
Mon 07:17:24 PM 41.0920 -75.1500 114° Southeast 491 565 21,800 -951 Descending FlightAware ADS-B
Mon 07:18:08 PM 41.0510 -75.0310 115° Southeast 487 560 21,100 -929 Descending FlightAware ADS-B
Mon 07:18:48 PM 41.0140 -74.9210 114° Southeast 481 554 20,500 -975 Descending FlightAware ADS-B
Mon 07:19:28 PM 40.9890 -74.8070 106° East 479 551 19,800 -907 Descending FlightAware ADS-B
Mon 07:20:14 PM 40.9750 -74.6770 98° East 472 543 19,200 -558 Descending FlightAware ADS-B
Mon 07:20:54 PM 40.9630 -74.5630 98° East 469 540 19,000 -150 Descending FlightAware ADS-B
Mon 07:21:34 PM 40.9500 -74.4470 98° East 471 542 19,000  Level FlightAware ADS-B
Mon 07:22:16 PM 40.9370 -74.3300 98° East 470 541 19,000  Level FlightAware ADS-B
Mon 07:22:26 PM 40.9338 -74.3025 99° East 470 541 19,000  Level FlightAware ADS-B
Mon 07:22:59 PM 40.9230 -74.2068 98° East 461 531 19,000  Level FlightAware ADS-B
Mon 07:23:15 PM 40.9159 -74.1631 102° East 441 507 19,000  Level FlightAware ADS-B
Mon 07:23:29 PM 40.9072 -74.1301 109° East 428 493 19,000  Level FlightAware ADS-B
Mon 07:23:39 PM 40.8984 -74.1071 117° Southeast 413 475 19,000  Level FlightAware ADS-B
Mon 07:23:46 PM 40.8916 -74.0930 123° Southeast 405 466 19,000  Level FlightAware ADS-B
Mon 07:23:50 PM 40.8872 -74.0853 127° Southeast 398 458 19,000 -429 Level FlightAware ADS-B
Mon 07:24:00 PM 40.8746 -74.0676 133° Southeast 383 441 18,900 -632 Descending FlightAware ADS-B
Mon 07:24:09 PM 40.8619 -74.0543 142° Southeast 374 430 18,800 -600 Descending FlightAware ADS-B
Mon 07:24:10 PM 40.8613 -74.0538 148° Southeast 372 428 18,800 -857 Level FlightAware ADS-B
Mon 07:24:16 PM 40.8518 -74.0465 150° Southeast 364 419 18,700 -1,263 Descending FlightAware ADS-B
Mon 07:24:48 PM 40.8041 -74.0223 159° South 348 400 18,000 -1,451 Descending FlightAware ADS-B
Mon 07:25:47 PM 40.7230 -73.9840 160° South 339 390 16,500 -1,882 Descending FlightAware ADS-B
Mon 07:26:30 PM 40.6530 -73.9530 161° South 330 380 14,800 -2,024 Descending FlightAware ADS-B
Mon 07:27:10 PM 40.5960 -73.9270 161° South 321 369 13,700 -1,317 Descending FlightAware ADS-B
Mon 07:27:52 PM 40.5370 -73.9020 162° South 316 364 13,000 -500 Descending FlightAware ADS-B
Mon 07:28:34 PM 40.4790 -73.8780 163° South 312 359 13,000 -1,116 Level FlightAware ADS-B
Mon 07:29:18 PM 40.4190 -73.8530 162° South 305 351 11,400 -2,341 Descending FlightAware ADS-B
Mon 07:29:56 PM 40.3700 -73.8240 156° South 312 359 9,800 -2,357 Descending FlightAware ADS-B
Mon 07:30:14 PM 40.3570 -73.7960 121° Southeast 310 357 9,200 -2,200 Descending FlightAware ADS-B
Mon 07:30:26 PM 40.3530 -73.7730 103° East 309 356 8,700 -2,211 Descending FlightAware ADS-B
Mon 07:30:52 PM 40.3480 -73.7260 98° East 304 350 7,800 -1,929 Descending FlightAware ADS-B
Mon 07:31:22 PM 40.3410 -73.6710 99° East 292 336 6,900 -1,600 Descending FlightAware ADS-B
Mon 07:32:07 PM 40.3645 -73.6105 63° Northeast 281 323 5,800 -1,565 Descending FlightAware ADS-B
Mon 07:32:31 PM 40.3943 -73.5882 30° Northeast 280 322 5,100 -1,263 Descending FlightAware ADS-B
Mon 07:33:23 PM 40.4480 -73.5480 30° Northeast 277 319 4,200 -815 Descending FlightAware ADS-B
Mon 07:33:52 PM 40.4890 -73.5310 18° North 273 314 4,000 -245 Descending FlightAware ADS-B
Mon 07:34:12 PM 40.5120 -73.5260 North 272 313 4,000  Level FlightAware ADS-B
Mon 07:34:42 PM 40.5500 -73.5170 10° North 273 314 4,000  Level FlightAware ADS-B
Mon 07:34:54 PM 40.5650 -73.5140 North 274 315 4,000  Level FlightAware ADS-B
Mon 07:35:22 PM 40.6010 -73.5060 10° North 271 312 4,000  Level FlightAware ADS-B
Mon 07:35:52 PM 40.6380 -73.4970 10° North 265 305 4,000  Level FlightAware ADS-B
Mon 07:36:20 PM 40.6690 -73.4900 10° North 232 267 4,000 -327 Level FlightAware ADS-B
Mon 07:36:47 PM 40.6960 -73.4840 10° North 224 258 3,700 -857 Descending FlightAware ADS-B
Mon 07:37:16 PM 40.7260 -73.4770 10° North 224 258 3,200 -878 Descending FlightAware ADS-B
Mon 07:37:28 PM 40.7360 -73.4750 North 222 255 3,100 -300 Descending FlightAware ADS-B
Mon 07:37:56 PM 40.7600 -73.4870 339° North 186 214 3,000 -409 Descending FlightAware ADS-B
Mon 07:38:12 PM 40.7710 -73.5000 318° Northwest 179 206 2,800 -818 Descending FlightAware ADS-B
Mon 07:38:40 PM 40.7850 -73.5220 310° West 174 200 2,400 -706 Descending FlightAware ADS-B
Mon 07:39:20 PM 40.7850 -73.5650 270° West 179 206 2,000 -343 Descending FlightAware ADS-B
Mon 07:39:50 PM 40.7790 -73.5970 256° West 178 205 2,000  Level FlightAware ADS-B
Mon 07:40:16 PM 40.7740 -73.6230 256° West 174 200 2,000  Level FlightAware ADS-B
Mon 07:40:28 PM 40.7680 -73.6350 237° Southwest 177 204 2,000  Level FlightAware ADS-B
Mon 07:40:56 PM 40.7560 -73.6580 235° Southwest 170 196 2,000  Level FlightAware ADS-B
Mon 07:41:24 PM 40.7400 -73.6800 226° Southwest 180 207 2,000 -321 Level FlightAware ADS-B
Mon 07:41:52 PM 40.7200 -73.6970 213° Southwest 181 208 1,700 -750 Descending FlightAware ADS-B
Mon 07:42:20 PM 40.7000 -73.7120 210° Southwest 168 193 1,300 -857 Descending FlightAware ADS-B
Mon 07:42:48 PM 40.6840 -73.7250 212° Southwest 138 159 900 -724 Descending FlightAware ADS-B
Mon 07:43:18 PM 40.6680 -73.7370 210° Southwest 126 145 600 -621 Descending FlightAware ADS-B
Mon 07:43:46 PM 40.6540 -73.7480 211° Southwest 131 151 300 -545 Descending FlightAware ADS-B
Mon 07:44:13 PM 40.6390 -73.7590 209° Southwest 128 147 100 -444 Descending FlightAware ADS-B
Mon 07:44:42 PM 40.6310 -73.7660 214° Southwest 36 41 -207 Descending FlightAware ADS-B
Mon 07:44:54 PM 40.6300 -73.7680 237° Southwest 27 31  Level FlightAware ADS-B
Mon 07:45:04 PM 40.6290 -73.7690 217° Southwest 22 25  Level FlightAware ADS-B
Mon 07:45:39 PM 40.6310 -73.7730 303° West 32 37  Level FlightAware ADS-B

Login

Don't have an account? Register now (free) for customized features, flight alerts, and more!